Richards Grove, Pennsylvania
Current Conditions -  °F | °C
As of 6:54 PM on Friday 24 Oct 2014 (Local Time) from KIPT Reporting Station
Clear Clear  
Wind Chill: 63°   Ceiling: Unl
Heat Index: 63°   Visibility: 10mi
Dew Point: 29°   Wind: 9mph
Humidity: 28%   Direction: 310°NW
Pressure: 29.88"   Gusts: NA
Location:  41.2442°N, 76.522°W
Report Text: KIPT 242254Z 31008KT 10SM CLR 17/M02 A2988 RMK AO2 SLP117 T01721017
Loading
Personal Weather Stations






























Interactive Weather Map
Tropical Storm Tracking
New forecast layout! Learn more

10-Day Weather Forecast

Advertisements
Track Severe Weather on mobile